Time;durP1;ratioP1;P1;durP2;ratioP2;P2;SDS_P1;SDS_P2;PMS_P1;PMS_P2;Temp;Humidity;BMP_temperature;BMP_pressure;BME280_temperature;BME280_humidity;BME280_pressure;Samples;Min_cycle;Max_cycle;Signal;HPM_P1;HPM_P2
2023/12/13 00:01:27;;;;;;;19.75;4.63;;;13.90;99.90;;;;;;5053801;28;20475;-62
2023/12/13 00:03:53;;;;;;;19.65;4.55;;;13.90;99.90;;;;;;5053421;28;20067;-62
2023/12/13 00:06:19;;;;;;;19.00;4.47;;;13.90;99.90;;;;;;5053434;28;20079;-62
2023/12/13 00:08:45;;;;;;;17.83;4.03;;;13.90;99.90;;;;;;5085250;28;20444;-62
2023/12/13 00:11:11;;;;;;;19.38;4.13;;;13.70;99.90;;;;;;5052552;28;20071;-62
2023/12/13 00:13:37;;;;;;;15.23;4.00;;;13.60;99.90;;;;;;5053911;28;20067;-62
2023/12/13 00:16:02;;;;;;;20.27;3.92;;;13.50;99.90;;;;;;5053123;28;20105;-62
2023/12/13 00:18:29;;;;;;;19.92;5.20;;;13.40;99.90;;;;;;5053101;28;20021;-62
2023/12/13 00:20:54;;;;;;;15.10;4.32;;;13.30;99.90;;;;;;5053076;28;20056;-62
2023/12/13 00:23:20;;;;;;;19.67;5.25;;;13.20;99.90;;;;;;5052817;28;20075;-62
2023/12/13 00:25:46;;;;;;;18.08;4.45;;;13.20;99.90;;;;;;5052730;28;20033;-62
2023/12/13 00:28:11;;;;;;;20.42;5.00;;;13.10;99.90;;;;;;5053290;28;20020;-62
2023/12/13 00:30:37;;;;;;;20.17;5.47;;;13.20;99.90;;;;;;5052899;28;20031;-62
2023/12/13 00:33:03;;;;;;;19.30;5.35;;;13.10;99.90;;;;;;5052044;28;20411;-62
2023/12/13 00:35:28;;;;;;;17.15;4.32;;;13.10;99.90;;;;;;5052858;28;20446;-62
2023/12/13 00:37:54;;;;;;;17.95;4.10;;;13.00;99.90;;;;;;5052616;28;20550;-62
2023/12/13 00:40:22;;;;;;;14.25;4.13;;;13.00;99.90;;;;;;5052769;28;20028;-62
2023/12/13 00:42:48;;;;;;;16.75;3.80;;;13.00;99.90;;;;;;5052217;28;20401;-62
2023/12/13 00:45:14;;;;;;;21.08;4.80;;;13.00;99.90;;;;;;5052548;28;20029;-61
2023/12/13 00:47:40;;;;;;;16.75;4.00;;;13.00;99.90;;;;;;5052750;28;20036;-62
2023/12/13 00:50:07;;;;;;;19.27;4.95;;;13.00;99.90;;;;;;5052851;28;20029;-63
2023/12/13 00:52:34;;;;;;;19.10;5.00;;;13.00;99.90;;;;;;5052465;28;20078;-62
2023/12/13 00:55:00;;;;;;;20.13;4.45;;;13.00;99.90;;;;;;5052135;28;20029;-62
2023/12/13 00:57:27;;;;;;;21.55;4.93;;;13.00;99.90;;;;;;5052677;28;20187;-62
2023/12/13 00:59:52;;;;;;;20.83;5.13;;;13.00;99.90;;;;;;5052293;28;20056;-62
2023/12/13 01:02:18;;;;;;;23.55;5.20;;;13.00;99.90;;;;;;5052447;28;20487;-62
2023/12/13 01:04:44;;;;;;;23.42;5.63;;;13.00;99.90;;;;;;5052138;28;20034;-62
2023/12/13 01:07:10;;;;;;;20.85;4.88;;;13.00;99.90;;;;;;5051983;28;20503;-62
2023/12/13 01:09:36;;;;;;;21.35;5.13;;;13.00;99.90;;;;;;5051782;28;20104;-62
2023/12/13 01:12:02;;;;;;;20.23;5.25;;;13.00;99.90;;;;;;5051953;28;20529;-61
2023/12/13 01:14:28;;;;;;;21.27;5.40;;;13.10;99.90;;;;;;5052078;28;20025;-62
2023/12/13 01:16:54;;;;;;;19.00;5.10;;;13.10;99.90;;;;;;5052404;28;20423;-62
2023/12/13 01:19:19;;;;;;;18.75;4.50;;;13.00;99.90;;;;;;5051904;28;20123;-62
2023/12/13 01:21:46;;;;;;;20.00;5.25;;;13.00;99.90;;;;;;5051969;28;20060;-62
2023/12/13 01:24:12;;;;;;;24.23;5.40;;;13.30;99.90;;;;;;5051398;28;20036;-62
2023/12/13 01:26:37;;;;;;;21.38;4.75;;;13.50;99.90;;;;;;5051754;28;20423;-62
2023/12/13 01:29:03;;;;;;;22.25;5.18;;;13.60;99.90;;;;;;5052080;28;20029;-62
2023/12/13 01:31:28;;;;;;;23.42;5.38;;;13.70;99.90;;;;;;5051666;28;20115;-62
2023/12/13 01:33:54;;;;;;;23.60;5.07;;;13.70;99.90;;;;;;5051693;28;20029;-62
2023/12/13 01:36:20;;;;;;;21.60;5.22;;;13.80;99.90;;;;;;5051534;28;20036;-62
2023/12/13 01:38:45;;;;;;;22.17;5.32;;;14.00;99.90;;;;;;5051282;28;20399;-62
2023/12/13 01:41:11;;;;;;;24.77;5.55;;;14.00;99.90;;;;;;5051533;28;20513;-61
2023/12/13 01:43:36;;;;;;;21.15;5.85;;;13.80;99.90;;;;;;5051586;28;20029;-62
2023/12/13 01:46:02;;;;;;;28.70;6.38;;;13.90;99.90;;;;;;5050856;28;20040;-62
2023/12/13 01:48:29;;;;;;;27.23;6.47;;;13.80;99.90;;;;;;5051789;28;20017;-62
2023/12/13 01:50:55;;;;;;;27.10;6.72;;;13.80;99.90;;;;;;5051304;28;20021;-62
2023/12/13 01:53:24;;;;;;;34.47;7.90;;;13.60;99.90;;;;;;5050889;28;20036;-62
2023/12/13 01:55:51;;;;;;;26.17;6.70;;;13.60;99.90;;;;;;5051599;28;20044;-62
2023/12/13 01:58:18;;;;;;;29.38;6.63;;;13.50;99.90;;;;;;5051348;28;20029;-61
2023/12/13 02:00:45;;;;;;;31.17;6.88;;;13.40;99.90;;;;;;5051357;28;20053;-61
2023/12/13 02:03:11;;;;;;;25.98;6.80;;;13.30;99.90;;;;;;5051118;28;20086;-62
2023/12/13 02:05:38;;;;;;;21.25;5.00;;;13.30;99.90;;;;;;5051498;28;20037;-62
2023/12/13 02:08:04;;;;;;;23.33;5.20;;;13.30;99.90;;;;;;5050871;28;20021;-62
2023/12/13 02:10:30;;;;;;;23.45;5.68;;;13.20;99.90;;;;;;5051252;28;20021;-61
2023/12/13 02:12:56;;;;;;;22.35;5.68;;;13.20;99.90;;;;;;5051289;28;20043;-62
2023/12/13 02:15:22;;;;;;;26.75;5.55;;;13.20;99.90;;;;;;5051024;28;20029;-62
2023/12/13 02:17:52;;;;;;;28.00;5.97;;;13.20;99.90;;;;;;5051108;28;20368;-61
2023/12/13 02:20:18;;;;;;;27.65;6.88;;;13.10;99.90;;;;;;5051101;28;20024;-62
2023/12/13 02:22:44;;;;;;;30.02;7.00;;;13.20;99.90;;;;;;5050633;28;20051;-62
2023/12/13 02:25:15;;;;;;;25.40;5.95;;;13.20;99.90;;;;;;5051192;28;20029;-62
2023/12/13 02:27:44;;;;;;;29.27;6.22;;;13.20;99.90;;;;;;5083537;28;20415;-61
2023/12/13 02:30:10;;;;;;;25.42;5.47;;;13.20;99.90;;;;;;5050836;28;20037;-61
2023/12/13 02:32:39;;;;;;;19.88;5.30;;;13.20;99.90;;;;;;5051283;28;20029;-62
2023/12/13 02:35:06;;;;;;;26.77;5.60;;;13.20;99.90;;;;;;5050684;28;20036;-62
2023/12/13 02:37:31;;;;;;;21.42;5.10;;;13.20;99.90;;;;;;5050807;28;20025;-62
2023/12/13 02:39:58;;;;;;;21.17;4.97;;;13.20;99.90;;;;;;5050828;28;20158;-62
2023/12/13 02:42:25;;;;;;;23.73;5.55;;;13.20;99.90;;;;;;5051101;28;20033;-62
2023/12/13 02:44:51;;;;;;;17.90;5.28;;;13.20;99.90;;;;;;5050965;28;20593;-62
2023/12/13 02:47:17;;;;;;;22.50;5.75;;;13.20;99.90;;;;;;5050713;28;20032;-62
2023/12/13 02:49:43;;;;;;;22.92;5.43;;;13.20;99.90;;;;;;5050784;28;20033;-62
2023/12/13 02:52:08;;;;;;;21.88;5.20;;;13.20;99.90;;;;;;5050324;28;20035;-61
2023/12/13 02:54:34;;;;;;;24.05;5.32;;;13.20;99.90;;;;;;5050721;28;20025;-62
2023/12/13 02:57:00;;;;;;;25.20;5.95;;;13.20;99.90;;;;;;5053050;28;20083;-62
2023/12/13 02:59:25;;;;;;;20.88;5.63;;;13.30;99.90;;;;;;5054633;28;20114;-62
2023/12/13 03:01:51;;;;;;;23.02;5.53;;;13.20;99.90;;;;;;5054571;28;20495;-62
2023/12/13 03:04:17;;;;;;;27.27;5.15;;;13.20;99.90;;;;;;5054394;28;20108;-62
2023/12/13 03:06:43;;;;;;;19.30;5.60;;;13.20;99.90;;;;;;5054198;28;20029;-62
2023/12/13 03:09:08;;;;;;;15.05;4.05;;;13.40;99.90;;;;;;5054419;28;20490;-62
2023/12/13 03:11:34;;;;;;;14.30;4.40;;;13.50;99.90;;;;;;5086572;28;20132;-61
2023/12/13 03:14:00;;;;;;;16.15;4.00;;;13.60;99.90;;;;;;5054657;28;20056;-61
2023/12/13 03:16:25;;;;;;;17.65;4.30;;;13.80;99.90;;;;;;5054378;28;20436;-62
2023/12/13 03:18:51;;;;;;;18.90;4.05;;;13.80;99.90;;;;;;5054183;28;20487;-62
2023/12/13 03:21:16;;;;;;;16.73;4.15;;;13.80;99.90;;;;;;5054071;28;20475;-62
2023/12/13 03:23:42;;;;;;;24.08;5.88;;;13.90;99.90;;;;;;5054226;28;20033;-62
2023/12/13 03:26:08;;;;;;;23.10;5.60;;;14.00;99.90;;;;;;5054103;28;20104;-62
2023/12/13 03:28:35;;;;;;;20.25;5.50;;;14.10;99.90;;;;;;5054131;28;20100;-61
2023/12/13 03:31:07;;;;;;;27.90;5.80;;;14.10;99.90;;;;;;5053984;28;20028;-61
2023/12/13 03:33:33;;;;;;;23.92;5.70;;;14.00;99.90;;;;;;5053884;28;20033;-61
2023/12/13 03:35:58;;;;;;;25.52;6.10;;;14.20;99.90;;;;;;5053966;28;20459;-61
2023/12/13 03:38:24;;;;;;;22.40;5.88;;;14.10;99.90;;;;;;5053935;28;20029;-62
2023/12/13 03:40:50;;;;;;;18.85;5.60;;;14.00;99.90;;;;;;5053999;28;20066;-62
2023/12/13 03:43:15;;;;;;;22.52;5.72;;;13.80;99.90;;;;;;5053680;28;20119;-62
2023/12/13 03:45:41;;;;;;;21.65;5.35;;;13.70;99.90;;;;;;5053772;28;20036;-62
2023/12/13 03:48:07;;;;;;;24.77;5.47;;;13.60;99.90;;;;;;5053597;28;20024;-62
2023/12/13 03:50:33;;;;;;;28.55;6.57;;;13.50;99.90;;;;;;5053322;28;20043;-61
2023/12/13 03:52:59;;;;;;;24.17;5.80;;;13.50;99.90;;;;;;5053539;28;20127;-62
2023/12/13 03:55:24;;;;;;;21.60;5.80;;;13.40;99.90;;;;;;5053609;28;20159;-62
2023/12/13 03:57:50;;;;;;;26.50;6.15;;;13.40;99.90;;;;;;5053449;28;20036;-62
2023/12/13 04:00:16;;;;;;;23.55;6.35;;;13.30;99.90;;;;;;5053351;28;20049;-62
2023/12/13 04:02:42;;;;;;;20.42;5.10;;;13.30;99.90;;;;;;5053364;28;20029;-62
2023/12/13 04:05:08;;;;;;;22.98;5.07;;;13.20;99.90;;;;;;5053430;28;20426;-61
2023/12/13 04:07:33;;;;;;;21.92;5.18;;;13.10;99.90;;;;;;5052398;28;20075;-62
2023/12/13 04:09:59;;;;;;;23.35;5.07;;;13.10;99.90;;;;;;5053118;28;20029;-62
2023/12/13 04:12:24;;;;;;;21.05;4.85;;;13.10;99.90;;;;;;5053296;28;20384;-62
2023/12/13 04:14:50;;;;;;;22.67;5.75;;;13.10;99.90;;;;;;5053186;28;20499;-62
2023/12/13 04:17:16;;;;;;;23.70;5.80;;;13.10;99.90;;;;;;5053233;28;20475;-62
2023/12/13 04:19:41;;;;;;;26.70;5.75;;;13.10;99.90;;;;;;5053053;28;20028;-62
2023/12/13 04:22:07;;;;;;;24.35;5.78;;;13.10;99.90;;;;;;5053277;28;20032;-61
2023/12/13 04:24:33;;;;;;;26.92;6.45;;;13.10;99.90;;;;;;5052890;28;20100;-62
2023/12/13 04:26:58;;;;;;;26.55;6.03;;;13.10;99.90;;;;;;5053114;28;20056;-62
2023/12/13 04:29:24;;;;;;;25.92;5.90;;;13.10;99.90;;;;;;5052829;28;20063;-62
2023/12/13 04:31:50;;;;;;;25.38;6.00;;;13.10;99.90;;;;;;5053222;28;20037;-62
2023/12/13 04:34:15;;;;;;;18.83;4.75;;;13.10;99.90;;;;;;5052534;28;20028;-62
2023/12/13 04:36:41;;;;;;;16.15;4.22;;;13.00;99.90;;;;;;5052755;28;20064;-62
2023/12/13 04:39:07;;;;;;;13.05;3.30;;;12.90;99.90;;;;;;5051583;28;20387;-62
2023/12/13 04:41:32;;;;;;;12.00;3.00;;;12.60;99.90;;;;;;5052649;28;20100;-62
2023/12/13 04:43:58;;;;;;;11.18;2.80;;;12.40;99.90;;;;;;5052428;28;20064;-62
2023/12/13 04:46:24;;;;;;;15.25;3.40;;;12.30;99.90;;;;;;5052884;28;20430;-63
2023/12/13 04:48:49;;;;;;;19.25;4.07;;;12.30;99.90;;;;;;5052508;28;20407;-62
2023/12/13 04:51:15;;;;;;;23.70;5.20;;;12.40;99.90;;;;;;5052420;28;20518;-62
2023/12/13 04:53:41;;;;;;;27.58;5.47;;;12.40;99.90;;;;;;5052509;28;20514;-62
2023/12/13 04:56:07;;;;;;;24.63;4.88;;;12.50;99.90;;;;;;5052363;28;20025;-62
2023/12/13 04:58:33;;;;;;;23.80;5.07;;;12.80;99.90;;;;;;5052466;28;20518;-62
2023/12/13 05:00:59;;;;;;;20.13;5.32;;;13.00;99.90;;;;;;5051886;28;20029;-62
2023/12/13 05:03:26;;;;;;;21.25;5.28;;;13.20;99.90;;;;;;5052161;28;20138;-62
2023/12/13 05:05:52;;;;;;;19.42;4.75;;;13.40;99.90;;;;;;5052391;28;20051;-62
2023/12/13 05:08:17;;;;;;;18.10;5.28;;;13.50;99.90;;;;;;5052188;28;20468;-62
2023/12/13 05:10:43;;;;;;;16.80;4.43;;;13.70;99.90;;;;;;5052277;28;20147;-62
2023/12/13 05:13:09;;;;;;;22.15;5.07;;;13.60;99.90;;;;;;5051879;28;20045;-62
2023/12/13 05:15:35;;;;;;;18.88;4.63;;;13.70;99.90;;;;;;5051740;28;20040;-62
2023/12/13 05:18:02;;;;;;;22.58;5.80;;;13.80;99.90;;;;;;5052350;28;20037;-62
2023/12/13 05:20:28;;;;;;;28.27;5.85;;;13.80;99.90;;;;;;5051752;28;20120;-61
2023/12/13 05:22:53;;;;;;;21.10;5.85;;;13.70;99.90;;;;;;5051849;28;20108;-62
2023/12/13 05:25:20;;;;;;;24.80;5.78;;;13.80;99.90;;;;;;5051841;28;20029;-62
2023/12/13 05:27:45;;;;;;;25.75;6.20;;;13.60;99.90;;;;;;5051740;28;20032;-62
2023/12/13 05:30:11;;;;;;;18.00;4.57;;;13.30;99.90;;;;;;5051397;28;20039;-62
2023/12/13 05:32:37;;;;;;;19.60;4.82;;;13.10;99.90;;;;;;5051626;28;20037;-60
2023/12/13 05:35:03;;;;;;;25.25;5.55;;;13.00;99.90;;;;;;5052101;28;20060;-62
2023/12/13 05:37:29;;;;;;;26.08;6.70;;;12.90;99.90;;;;;;5051586;28;20025;-62
2023/12/13 05:39:55;;;;;;;22.23;5.90;;;12.90;99.90;;;;;;5051502;28;20029;-62
2023/12/13 05:42:20;;;;;;;19.42;4.97;;;12.80;99.90;;;;;;5051521;28;20067;-62
2023/12/13 05:44:49;;;;;;;27.85;5.78;;;12.70;99.90;;;;;;5051068;28;20404;-62
2023/12/13 05:47:15;;;;;;;24.42;5.40;;;12.60;99.90;;;;;;5051762;28;20025;-62
2023/12/13 05:49:40;;;;;;;26.15;5.57;;;12.50;99.90;;;;;;5051440;28;20483;-62
2023/12/13 05:52:06;;;;;;;21.33;4.97;;;12.30;99.90;;;;;;5051664;28;20560;-62
2023/12/13 05:54:33;;;;;;;30.20;6.72;;;12.30;99.90;;;;;;5051255;28;20025;-62
2023/12/13 05:56:59;;;;;;;22.13;5.75;;;12.20;99.90;;;;;;5051179;28;20033;-62
2023/12/13 05:59:24;;;;;;;24.10;6.00;;;12.20;99.90;;;;;;5051084;28;20041;-62
2023/12/13 06:01:50;;;;;;;24.77;5.30;;;12.40;99.90;;;;;;5051219;28;20119;-62
2023/12/13 06:04:16;;;;;;;20.73;5.28;;;12.30;99.90;;;;;;5049937;28;20033;-62
2023/12/13 06:06:45;;;;;;;23.35;5.78;;;12.30;99.90;;;;;;5051318;28;20027;-62
2023/12/13 06:09:11;;;;;;;23.92;5.47;;;12.40;99.90;;;;;;5051599;28;20035;-63
2023/12/13 06:11:36;;;;;;;20.63;5.13;;;12.40;99.90;;;;;;5051118;28;20473;-62
2023/12/13 06:14:02;;;;;;;21.38;4.95;;;12.40;99.90;;;;;;5050717;28;20031;-62
2023/12/13 06:16:28;;;;;;;20.17;4.63;;;12.40;99.90;;;;;;5051177;28;20049;-62
2023/12/13 06:18:54;;;;;;;17.33;4.88;;;12.40;99.90;;;;;;5051176;28;20057;-62
2023/12/13 06:21:19;;;;;;;21.35;5.43;;;12.40;99.90;;;;;;5051280;28;20071;-62
2023/12/13 06:23:45;;;;;;;25.70;5.50;;;12.30;99.90;;;;;;5051067;28;20029;-61
2023/12/13 06:26:11;;;;;;;21.38;5.35;;;12.40;99.90;;;;;;5050917;28;20108;-62
2023/12/13 06:28:36;;;;;;;22.42;5.15;;;12.40;99.90;;;;;;5050662;28;20369;-62
2023/12/13 06:31:02;;;;;;;24.85;5.35;;;12.40;99.90;;;;;;5051586;28;20033;-62
2023/12/13 06:33:29;;;;;;;23.00;5.22;;;12.50;99.90;;;;;;5055323;28;20113;-62
2023/12/13 06:35:55;;;;;;;21.05;5.18;;;12.50;99.90;;;;;;5054721;28;20029;-61
2023/12/13 06:38:21;;;;;;;24.42;5.07;;;12.50;99.90;;;;;;5055086;28;20399;-62
2023/12/13 06:40:46;;;;;;;16.85;4.15;;;12.50;99.90;;;;;;5054928;28;20028;-62
2023/12/13 06:43:12;;;;;;;19.70;4.85;;;12.70;99.90;;;;;;5054938;28;20532;-62
2023/12/13 06:45:38;;;;;;;16.83;4.82;;;13.00;99.90;;;;;;5054907;28;20032;-62
2023/12/13 06:48:04;;;;;;;17.10;3.95;;;13.20;99.90;;;;;;5054895;28;20029;-62
2023/12/13 06:50:30;;;;;;;18.45;4.55;;;13.20;99.90;;;;;;5055090;28;20029;-61
2023/12/13 06:52:56;;;;;;;18.38;4.38;;;13.30;99.90;;;;;;5054649;28;20044;-62
2023/12/13 06:55:21;;;;;;;19.00;4.30;;;13.40;99.90;;;;;;5054416;28;20118;-62
2023/12/13 06:57:48;;;;;;;21.75;5.30;;;13.50;99.90;;;;;;5054797;28;20029;-61
2023/12/13 07:00:14;;;;;;;15.40;4.80;;;13.50;99.90;;;;;;5054454;28;20049;-61
2023/12/13 07:02:40;;;;;;;19.10;5.13;;;13.40;99.90;;;;;;5054333;28;20555;-61
2023/12/13 07:05:10;;;;;;;20.77;5.30;;;13.40;99.90;;;;;;5054720;28;20032;-62
2023/12/13 07:07:36;;;;;;;22.27;5.40;;;13.70;99.90;;;;;;5054553;28;20025;-62
2023/12/13 07:10:01;;;;;;;21.55;5.07;;;13.60;99.90;;;;;;5054412;28;20419;-62
2023/12/13 07:12:28;;;;;;;21.13;5.63;;;13.60;99.90;;;;;;5054047;28;20044;-62
2023/12/13 07:14:57;;;;;;;23.90;5.88;;;13.50;99.90;;;;;;5054350;28;20083;-62
2023/12/13 07:17:24;;;;;;;22.27;5.53;;;13.20;99.90;;;;;;5054664;28;20025;-62
2023/12/13 07:19:50;;;;;;;20.45;5.50;;;13.10;99.90;;;;;;5054308;28;20065;-62
2023/12/13 07:22:15;;;;;;;21.60;5.40;;;12.90;99.90;;;;;;5054215;28;20033;-62
2023/12/13 07:24:41;;;;;;;19.83;4.88;;;12.70;99.90;;;;;;5054033;28;20054;-62
2023/12/13 07:27:07;;;;;;;17.10;4.40;;;12.60;99.90;;;;;;5054022;28;20083;-62
2023/12/13 07:29:33;;;;;;;17.90;4.75;;;12.60;99.90;;;;;;5054157;28;20025;-62
2023/12/13 07:31:59;;;;;;;22.80;4.85;;;12.60;99.90;;;;;;5054376;28;20487;-62
2023/12/13 07:34:25;;;;;;;21.98;4.65;;;12.50;99.90;;;;;;5054052;28;20043;-64
2023/12/13 07:36:53;;;;;;;25.00;5.03;;;12.50;99.90;;;;;;5053974;28;20025;-64
2023/12/13 07:39:19;;;;;;;19.05;4.88;;;12.50;99.90;;;;;;5053755;28;20106;-64
2023/12/13 07:41:45;;;;;;;23.52;4.93;;;12.50;99.90;;;;;;5053543;28;20487;-63
2023/12/13 07:44:10;;;;;;;20.98;5.38;;;12.60;99.90;;;;;;5053988;28;20024;-64
2023/12/13 07:46:38;;;;;;;21.83;5.00;;;12.50;99.90;;;;;;5054181;28;20036;-64
2023/12/13 07:49:04;;;;;;;23.77;5.93;;;12.50;99.90;;;;;;5053744;28;20032;-64
2023/12/13 07:51:31;;;;;;;17.13;4.50;;;12.60;99.90;;;;;;5053615;28;20047;-64
2023/12/13 07:53:59;;;;;;;14.00;3.65;;;12.40;99.90;;;;;;5053477;28;20033;-64
2023/12/13 07:56:25;;;;;;;13.07;3.50;;;12.30;99.90;;;;;;5053689;28;20048;-64
2023/12/13 07:58:51;;;;;;;10.15;3.08;;;12.10;99.90;;;;;;5053637;28;20048;-64
2023/12/13 08:01:17;;;;;;;11.68;3.55;;;12.00;99.90;;;;;;5053671;28;20036;-64
2023/12/13 08:03:46;;;;;;;15.32;3.38;;;11.90;99.90;;;;;;5053478;28;20029;-63
2023/12/13 08:06:12;;;;;;;15.25;3.38;;;11.90;99.90;;;;;;5053407;28;20032;-64
2023/12/13 08:08:39;;;;;;;18.77;4.45;;;11.90;99.90;;;;;;5053644;28;20029;-64
2023/12/13 08:11:05;;;;;;;20.23;4.60;;;11.90;99.90;;;;;;5053041;28;20044;-64
2023/12/13 08:13:30;;;;;;;21.60;5.18;;;12.00;99.90;;;;;;5053216;28;20041;-64
2023/12/13 08:15:56;;;;;;;22.58;5.35;;;12.00;99.90;;;;;;5053273;28;20047;-64
2023/12/13 08:18:22;;;;;;;23.35;6.22;;;12.00;99.90;;;;;;5053235;28;20541;-64
2023/12/13 08:20:47;;;;;;;20.08;5.03;;;12.10;99.90;;;;;;5053684;28;20055;-64
2023/12/13 08:23:13;;;;;;;24.00;5.70;;;12.10;99.90;;;;;;5053181;28;20457;-64
2023/12/13 08:25:38;;;;;;;22.92;5.97;;;12.10;99.90;;;;;;5052910;28;20519;-64
2023/12/13 08:28:04;;;;;;;20.98;5.20;;;12.10;99.90;;;;;;5052998;28;20032;-64
2023/12/13 08:30:30;;;;;;;25.25;5.47;;;12.30;99.90;;;;;;5053444;28;20020;-64
2023/12/13 08:32:55;;;;;;;15.90;4.45;;;12.50;99.90;;;;;;5052936;28;20029;-64
2023/12/13 08:35:21;;;;;;;24.63;6.03;;;12.60;99.90;;;;;;5053046;28;20115;-64
2023/12/13 08:37:46;;;;;;;21.92;4.97;;;12.80;99.90;;;;;;5053322;28;20028;-63
2023/12/13 08:40:12;;;;;;;17.17;4.45;;;12.80;99.90;;;;;;5052546;28;20043;-64
2023/12/13 08:42:38;;;;;;;19.35;4.93;;;12.80;99.90;;;;;;5052666;28;20025;-64
2023/12/13 08:45:05;;;;;;;17.05;4.53;;;12.90;99.90;;;;;;5052711;28;20028;-64
2023/12/13 08:47:30;;;;;;;20.40;5.18;;;13.00;99.90;;;;;;5052621;28;20104;-64
2023/12/13 08:49:56;;;;;;;23.92;5.88;;;13.00;99.90;;;;;;5052888;28;20128;-64
2023/12/13 08:52:21;;;;;;;18.83;5.47;;;13.10;99.90;;;;;;5052411;28;20037;-64
2023/12/13 08:54:47;;;;;;;20.60;4.68;;;13.10;99.90;;;;;;5051565;28;20033;-64
2023/12/13 08:57:13;;;;;;;22.75;4.47;;;13.10;99.90;;;;;;5052534;28;20029;-65
2023/12/13 08:59:38;;;;;;;17.50;4.78;;;13.10;99.90;;;;;;5052868;28;20045;-65
2023/12/13 09:02:04;;;;;;;15.52;3.72;;;12.90;99.90;;;;;;5052215;28;20044;-64
2023/12/13 09:04:30;;;;;;;14.60;3.83;;;12.70;99.90;;;;;;5052159;28;20410;-64
2023/12/13 09:06:55;;;;;;;13.32;4.32;;;12.70;99.90;;;;;;5052193;28;20454;-64
2023/12/13 09:09:21;;;;;;;17.02;4.55;;;12.50;99.90;;;;;;5051982;28;20194;-65
2023/12/13 09:11:47;;;;;;;21.52;4.68;;;12.50;99.90;;;;;;5052262;28;20047;-63
2023/12/13 09:14:13;;;;;;;23.25;5.47;;;12.50;99.90;;;;;;5052014;28;20033;-64
2023/12/13 09:16:39;;;;;;;25.02;5.60;;;12.50;99.90;;;;;;5052220;28;20492;-64
2023/12/13 09:19:06;;;;;;;24.25;5.28;;;12.50;99.90;;;;;;5052085;28;20390;-64
2023/12/13 09:21:32;;;;;;;26.92;5.90;;;12.60;99.90;;;;;;5051715;28;20033;-64
2023/12/13 09:23:57;;;;;;;24.90;6.10;;;12.60;99.90;;;;;;5051614;28;20108;-64
2023/12/13 09:26:23;;;;;;;23.40;5.75;;;12.70;99.90;;;;;;5052087;28;20114;-64
2023/12/13 09:28:48;;;;;;;22.58;6.40;;;12.70;99.90;;;;;;5051841;28;20495;-63
2023/12/13 09:31:14;;;;;;;19.55;4.47;;;12.70;99.90;;;;;;5051923;28;20031;-64
2023/12/13 09:33:40;;;;;;;23.30;5.53;;;12.70;99.90;;;;;;5051645;28;20036;-64
2023/12/13 09:36:07;;;;;;;22.50;5.50;;;12.60;99.90;;;;;;5051963;28;20498;-63
2023/12/13 09:38:32;;;;;;;21.52;5.78;;;12.60;99.90;;;;;;5051399;28;20025;-64
2023/12/13 09:40:58;;;;;;;24.20;5.93;;;12.60;99.90;;;;;;5051603;28;20028;-65
2023/12/13 09:43:25;;;;;;;22.00;4.95;;;12.60;99.90;;;;;;5051958;28;20049;-64
2023/12/13 09:45:53;;;;;;;17.92;4.68;;;12.60;99.90;;;;;;5051639;28;20025;-64
2023/12/13 09:48:22;;;;;;;20.73;4.78;;;12.60;99.90;;;;;;5051611;28;20032;-64
2023/12/13 09:50:58;;;;;;;21.30;4.70;;;12.70;99.90;;;;;;5051449;28;20050;-64
2023/12/13 09:53:25;;;;;;;20.48;4.88;;;12.70;99.90;;;;;;5051473;28;20523;-64
2023/12/13 09:55:52;;;;;;;47.63;8.13;;;12.80;99.90;;;;;;5051734;28;20029;-65
2023/12/13 09:58:18;;;;;;;21.23;5.28;;;12.90;99.90;;;;;;5051188;28;20029;-64
2023/12/13 10:00:44;;;;;;;21.63;5.47;;;13.00;99.90;;;;;;5051276;28;20044;-64
2023/12/13 10:03:10;;;;;;;20.58;5.13;;;12.90;99.90;;;;;;5051278;28;20036;-63
2023/12/13 10:05:40;;;;;;;22.20;5.13;;;12.90;99.90;;;;;;5050198;28;20028;-64
2023/12/13 10:08:10;;;;;;;24.10;6.07;;;12.80;99.90;;;;;;5051319;28;20040;-65
2023/12/13 10:10:36;;;;;;;19.85;5.43;;;12.80;99.90;;;;;;5051049;28;20017;-65
2023/12/13 10:13:02;;;;;;;19.13;5.05;;;12.70;99.90;;;;;;5051388;28;20040;-65
2023/12/13 10:15:31;;;;;;;19.70;5.22;;;12.80;99.90;;;;;;5050734;28;20029;-64
2023/12/13 10:18:05;;;;;;;24.30;5.22;;;13.00;99.90;;;;;;5050534;28;20071;-64
2023/12/13 10:20:31;;;;;;;16.75;4.63;;;13.30;99.90;;;;;;5050966;28;20033;-65
2023/12/13 10:22:57;;;;;;;18.88;4.93;;;13.40;99.90;;;;;;5051089;28;20096;-64
2023/12/13 10:25:23;;;;;;;17.65;5.13;;;13.60;99.90;;;;;;5051058;28;20441;-64
2023/12/13 10:27:52;;;;;;;18.65;4.80;;;13.70;99.90;;;;;;5051139;28;20025;-65
2023/12/13 10:30:18;;;;;;;17.70;5.00;;;13.80;99.90;;;;;;5051246;28;20503;-64
2023/12/13 10:32:44;;;;;;;22.15;5.03;;;13.80;99.90;;;;;;5050918;28;20037;-65
2023/12/13 10:35:09;;;;;;;24.67;5.13;;;13.90;99.90;;;;;;5050800;28;20029;-65
2023/12/13 10:37:36;;;;;;;23.75;5.43;;;14.00;99.90;;;;;;5051195;28;20033;-64
2023/12/13 10:40:03;;;;;;;34.63;7.65;;;13.50;99.90;;;;;;5051103;28;20457;-65
2023/12/13 10:42:29;;;;;;;20.10;4.78;;;13.00;99.90;;;;;;5050989;28;20039;-64
2023/12/13 10:44:55;;;;;;;24.27;5.30;;;12.90;99.90;;;;;;5051116;28;20025;-65
2023/12/13 10:47:25;;;;;;;21.33;4.85;;;12.60;99.90;;;;;;5050978;28;20499;-64
2023/12/13 10:49:55;;;;;;;23.27;5.63;;;12.50;99.90;;;;;;5050651;28;20399;-65
2023/12/13 10:52:22;;;;;;;27.08;5.40;;;12.40;99.90;;;;;;5050799;28;20116;-64
2023/12/13 10:54:49;;;;;;;17.40;4.18;;;12.30;99.90;;;;;;5051067;28;20033;-65
2023/12/13 10:57:15;;;;;;;18.52;4.28;;;12.30;99.90;;;;;;5051022;28;20113;-64
2023/12/13 10:59:42;;;;;;;14.30;3.00;;;12.30;99.90;;;;;;5050280;28;20134;-64
2023/12/13 11:02:10;;;;;;;13.23;3.03;;;12.10;99.90;;;;;;5050494;28;20537;-64
2023/12/13 11:04:37;;;;;;;17.50;3.60;;;12.10;99.90;;;;;;5049960;28;20033;-62
2023/12/13 11:07:06;;;;;;;20.95;4.03;;;12.00;99.90;;;;;;5050258;28;20108;-65
2023/12/13 11:09:32;;;;;;;19.05;4.70;;;12.00;99.90;;;;;;5050521;28;20104;-64
2023/12/13 11:12:09;;;;;;;22.30;5.45;;;12.00;99.90;;;;;;5050201;28;20448;-65
2023/12/13 11:14:35;;;;;;;22.02;5.90;;;12.10;99.90;;;;;;5050927;28;20033;-65
2023/12/13 11:17:01;;;;;;;20.30;5.95;;;12.10;99.90;;;;;;5051261;28;20469;-65
2023/12/13 11:19:27;;;;;;;19.65;4.30;;;12.10;99.90;;;;;;5054068;28;20376;-64
2023/12/13 11:21:56;;;;;;;17.98;4.50;;;12.20;99.90;;;;;;5054226;28;20024;-64
2023/12/13 11:24:28;;;;;;;17.90;4.18;;;12.20;99.90;;;;;;5054419;28;20067;-65
2023/12/13 11:26:58;;;;;;;20.50;5.03;;;12.20;99.90;;;;;;5054449;28;20452;-64
2023/12/13 11:29:29;;;;;;;19.80;5.22;;;12.10;99.90;;;;;;5054000;28;20043;-64
2023/12/13 11:31:58;;;;;;;27.10;5.93;;;12.20;99.90;;;;;;5053916;28;20070;-64
2023/12/13 11:34:31;;;;;;;20.20;5.40;;;12.20;99.90;;;;;;5053645;28;20025;-63
2023/12/13 11:36:59;;;;;;;21.17;5.75;;;12.30;99.90;;;;;;5053967;28;20056;-64
2023/12/13 11:39:25;;;;;;;20.08;4.85;;;12.30;99.90;;;;;;5053652;28;20075;-64
2023/12/13 11:41:51;;;;;;;20.35;5.60;;;12.40;99.90;;;;;;5054208;28;20739;-65
2023/12/13 11:44:16;;;;;;;19.13;4.38;;;12.50;99.90;;;;;;5053381;28;20028;-64
2023/12/13 11:46:42;;;;;;;19.88;5.25;;;12.50;99.90;;;;;;5053068;28;20108;-64
2023/12/13 11:49:08;;;;;;;21.85;4.95;;;12.50;99.90;;;;;;5053862;28;20025;-64
2023/12/13 11:51:33;;;;;;;18.05;4.97;;;12.50;99.90;;;;;;5053243;28;20115;-64
2023/12/13 11:54:00;;;;;;;21.13;4.50;;;12.50;99.90;;;;;;5053432;28;20116;-64
2023/12/13 11:56:26;;;;;;;16.95;4.40;;;12.50;99.90;;;;;;5054204;28;20079;-64
2023/12/13 11:58:51;;;;;;;18.38;4.78;;;12.60;99.90;;;;;;5052872;28;20531;-64
2023/12/13 12:01:19;;;;;;;21.92;5.10;;;12.70;99.90;;;;;;5053541;28;20025;-63
2023/12/13 12:03:45;;;;;;;20.00;5.03;;;12.90;99.90;;;;;;5053022;28;20522;-63
2023/12/13 12:06:15;;;;;;;19.27;5.13;;;13.10;99.90;;;;;;5053272;28;20526;-64
2023/12/13 12:08:42;;;;;;;22.65;5.18;;;13.30;99.90;;;;;;5053317;28;20049;-63
2023/12/13 12:11:07;;;;;;;21.80;4.88;;;13.50;99.90;;;;;;5053721;28;20029;-63
2023/12/13 12:13:33;;;;;;;16.17;4.03;;;13.60;99.90;;;;;;5053138;28;20033;-62
2023/12/13 12:16:00;;;;;;;21.23;4.32;;;13.50;99.90;;;;;;5052924;28;20033;-63
2023/12/13 12:18:26;;;;;;;21.42;4.53;;;13.40;99.90;;;;;;5053297;28;20143;-64
2023/12/13 12:20:52;;;;;;;17.75;4.60;;;13.40;99.90;;;;;;5053129;28;20029;-64
2023/12/13 12:23:18;;;;;;;16.63;4.20;;;13.40;99.90;;;;;;5053070;28;20150;-62
2023/12/13 12:25:44;;;;;;;19.77;4.18;;;13.50;99.90;;;;;;5053269;28;20029;-64
2023/12/13 12:28:11;;;;;;;19.02;4.55;;;13.60;99.90;;;;;;5052622;28;20037;-62
2023/12/13 12:30:39;;;;;;;17.90;3.63;;;13.60;99.90;;;;;;5052222;28;20108;-62